sensor_id;sensor_type;location;lat;lon;timestamp;P1;durP1;ratioP1;P2;durP2;ratioP2
30287;SDS011;17103;48.316;11.558;2022-07-30T00:01:10;1.58;;;1.08;;
30287;SDS011;17103;48.316;11.558;2022-07-30T00:03:36;3.10;;;1.20;;
30287;SDS011;17103;48.316;11.558;2022-07-30T00:06:02;1.27;;;0.98;;
30287;SDS011;17103;48.316;11.558;2022-07-30T00:08:27;2.53;;;0.95;;
30287;SDS011;17103;48.316;11.558;2022-07-30T00:10:53;1.77;;;1.17;;
30287;SDS011;17103;48.316;11.558;2022-07-30T00:13:19;1.30;;;1.20;;
30287;SDS011;17103;48.316;11.558;2022-07-30T00:15:45;1.88;;;1.15;;
30287;SDS011;17103;48.316;11.558;2022-07-30T00:18:10;2.20;;;1.13;;
30287;SDS011;17103;48.316;11.558;2022-07-30T00:20:36;1.38;;;1.13;;
30287;SDS011;17103;48.316;11.558;2022-07-30T00:23:04;1.35;;;1.13;;
30287;SDS011;17103;48.316;11.558;2022-07-30T00:25:30;1.52;;;1.10;;
30287;SDS011;17103;48.316;11.558;2022-07-30T00:27:56;1.52;;;1.20;;
30287;SDS011;17103;48.316;11.558;2022-07-30T00:30:22;1.83;;;1.55;;
30287;SDS011;17103;48.316;11.558;2022-07-30T00:32:47;1.55;;;1.20;;
30287;SDS011;17103;48.316;11.558;2022-07-30T00:35:13;1.25;;;0.95;;
30287;SDS011;17103;48.316;11.558;2022-07-30T00:37:39;1.98;;;1.25;;
30287;SDS011;17103;48.316;11.558;2022-07-30T00:40:06;2.33;;;1.25;;
30287;SDS011;17103;48.316;11.558;2022-07-30T00:42:40;1.73;;;1.10;;
30287;SDS011;17103;48.316;11.558;2022-07-30T00:45:07;1.70;;;1.02;;
30287;SDS011;17103;48.316;11.558;2022-07-30T00:47:35;2.03;;;1.20;;
30287;SDS011;17103;48.316;11.558;2022-07-30T00:50:01;2.35;;;0.90;;
30287;SDS011;17103;48.316;11.558;2022-07-30T00:52:29;1.20;;;1.10;;
30287;SDS011;17103;48.316;11.558;2022-07-30T00:54:56;2.75;;;1.08;;
30287;SDS011;17103;48.316;11.558;2022-07-30T00:57:23;2.70;;;1.10;;
30287;SDS011;17103;48.316;11.558;2022-07-30T00:59:49;1.35;;;1.08;;
30287;SDS011;17103;48.316;11.558;2022-07-30T01:02:15;3.05;;;1.23;;
30287;SDS011;17103;48.316;11.558;2022-07-30T01:04:40;1.50;;;1.05;;
30287;SDS011;17103;48.316;11.558;2022-07-30T01:07:06;3.15;;;1.08;;
30287;SDS011;17103;48.316;11.558;2022-07-30T01:09:32;1.55;;;1.20;;
30287;SDS011;17103;48.316;11.558;2022-07-30T01:11:57;1.38;;;1.00;;
30287;SDS011;17103;48.316;11.558;2022-07-30T01:14:23;1.83;;;1.27;;
30287;SDS011;17103;48.316;11.558;2022-07-30T01:16:52;2.53;;;1.20;;
30287;SDS011;17103;48.316;11.558;2022-07-30T01:19:28;5.22;;;1.45;;
30287;SDS011;17103;48.316;11.558;2022-07-30T01:27:29;3.28;;;0.90;;
30287;SDS011;17103;48.316;11.558;2022-07-30T01:29:58;1.92;;;0.90;;
30287;SDS011;17103;48.316;11.558;2022-07-30T01:32:25;1.20;;;0.77;;
30287;SDS011;17103;48.316;11.558;2022-07-30T01:34:54;0.70;;;0.70;;
30287;SDS011;17103;48.316;11.558;2022-07-30T01:37:22;1.45;;;0.80;;
30287;SDS011;17103;48.316;11.558;2022-07-30T01:39:49;2.92;;;1.13;;
30287;SDS011;17103;48.316;11.558;2022-07-30T01:42:16;3.15;;;1.35;;
30287;SDS011;17103;48.316;11.558;2022-07-30T01:44:44;1.77;;;1.27;;
30287;SDS011;17103;48.316;11.558;2022-07-30T01:47:12;3.50;;;1.08;;
30287;SDS011;17103;48.316;11.558;2022-07-30T01:49:43;1.10;;;0.85;;
30287;SDS011;17103;48.316;11.558;2022-07-30T01:52:15;1.93;;;0.90;;
30287;SDS011;17103;48.316;11.558;2022-07-30T01:54:43;1.55;;;1.20;;
30287;SDS011;17103;48.316;11.558;2022-07-30T01:57:10;1.30;;;0.98;;
30287;SDS011;17103;48.316;11.558;2022-07-30T01:59:38;1.58;;;1.30;;
30287;SDS011;17103;48.316;11.558;2022-07-30T02:02:07;1.95;;;1.42;;
30287;SDS011;17103;48.316;11.558;2022-07-30T02:04:33;2.22;;;1.20;;
30287;SDS011;17103;48.316;11.558;2022-07-30T02:07:00;3.22;;;1.52;;
30287;SDS011;17103;48.316;11.558;2022-07-30T02:09:33;2.20;;;0.98;;
30287;SDS011;17103;48.316;11.558;2022-07-30T02:12:01;2.80;;;1.23;;
30287;SDS011;17103;48.316;11.558;2022-07-30T02:14:51;2.30;;;1.27;;
30287;SDS011;17103;48.316;11.558;2022-07-30T02:17:38;1.95;;;1.30;;
30287;SDS011;17103;48.316;11.558;2022-07-30T02:20:29;2.65;;;1.50;;
30287;SDS011;17103;48.316;11.558;2022-07-30T02:22:59;1.70;;;1.20;;
30287;SDS011;17103;48.316;11.558;2022-07-30T02:25:29;1.80;;;1.25;;
30287;SDS011;17103;48.316;11.558;2022-07-30T02:27:59;3.17;;;1.27;;
30287;SDS011;17103;48.316;11.558;2022-07-30T02:30:36;1.52;;;1.33;;
30287;SDS011;17103;48.316;11.558;2022-07-30T02:33:16;2.10;;;1.50;;
30287;SDS011;17103;48.316;11.558;2022-07-30T02:35:44;2.72;;;1.45;;
30287;SDS011;17103;48.316;11.558;2022-07-30T02:38:10;2.28;;;1.40;;
30287;SDS011;17103;48.316;11.558;2022-07-30T02:40:40;2.75;;;1.65;;
30287;SDS011;17103;48.316;11.558;2022-07-30T02:43:09;1.67;;;1.50;;
30287;SDS011;17103;48.316;11.558;2022-07-30T02:45:38;3.15;;;1.77;;
30287;SDS011;17103;48.316;11.558;2022-07-30T02:48:05;2.67;;;1.85;;
30287;SDS011;17103;48.316;11.558;2022-07-30T02:50:33;4.53;;;2.08;;
30287;SDS011;17103;48.316;11.558;2022-07-30T02:53:00;2.20;;;1.83;;
30287;SDS011;17103;48.316;11.558;2022-07-30T02:55:27;2.22;;;1.63;;
30287;SDS011;17103;48.316;11.558;2022-07-30T02:57:56;4.30;;;1.50;;
30287;SDS011;17103;48.316;11.558;2022-07-30T03:00:24;4.13;;;1.90;;
30287;SDS011;17103;48.316;11.558;2022-07-30T03:02:53;2.72;;;1.55;;
30287;SDS011;17103;48.316;11.558;2022-07-30T03:05:20;3.53;;;1.30;;
30287;SDS011;17103;48.316;11.558;2022-07-30T03:07:47;2.72;;;1.40;;
30287;SDS011;17103;48.316;11.558;2022-07-30T03:10:14;5.15;;;1.95;;
30287;SDS011;17103;48.316;11.558;2022-07-30T03:12:43;4.28;;;2.20;;
30287;SDS011;17103;48.316;11.558;2022-07-30T03:15:10;2.67;;;2.13;;
30287;SDS011;17103;48.316;11.558;2022-07-30T03:17:37;1.88;;;1.45;;
30287;SDS011;17103;48.316;11.558;2022-07-30T03:20:11;4.00;;;2.00;;
30287;SDS011;17103;48.316;11.558;2022-07-30T03:22:40;3.05;;;1.63;;
30287;SDS011;17103;48.316;11.558;2022-07-30T03:25:09;4.25;;;1.55;;
30287;SDS011;17103;48.316;11.558;2022-07-30T03:27:37;1.98;;;1.45;;
30287;SDS011;17103;48.316;11.558;2022-07-30T03:30:04;2.38;;;2.17;;
30287;SDS011;17103;48.316;11.558;2022-07-30T03:32:31;4.78;;;1.98;;
30287;SDS011;17103;48.316;11.558;2022-07-30T03:34:58;7.07;;;2.08;;
30287;SDS011;17103;48.316;11.558;2022-07-30T03:37:29;3.50;;;1.88;;
30287;SDS011;17103;48.316;11.558;2022-07-30T03:39:55;2.97;;;1.55;;
30287;SDS011;17103;48.316;11.558;2022-07-30T03:42:23;1.88;;;1.48;;
30287;SDS011;17103;48.316;11.558;2022-07-30T03:44:49;3.08;;;2.20;;
30287;SDS011;17103;48.316;11.558;2022-07-30T03:47:15;2.80;;;2.35;;
30287;SDS011;17103;48.316;11.558;2022-07-30T03:49:43;2.38;;;1.70;;
30287;SDS011;17103;48.316;11.558;2022-07-30T03:52:11;3.15;;;2.25;;
30287;SDS011;17103;48.316;11.558;2022-07-30T03:54:37;2.90;;;1.90;;
30287;SDS011;17103;48.316;11.558;2022-07-30T03:57:05;2.30;;;1.80;;
30287;SDS011;17103;48.316;11.558;2022-07-30T03:59:30;2.17;;;1.90;;
30287;SDS011;17103;48.316;11.558;2022-07-30T04:04:29;2.50;;;1.70;;
30287;SDS011;17103;48.316;11.558;2022-07-30T04:06:55;3.17;;;1.75;;
30287;SDS011;17103;48.316;11.558;2022-07-30T04:09:24;3.55;;;1.70;;
30287;SDS011;17103;48.316;11.558;2022-07-30T04:11:49;5.25;;;2.28;;
30287;SDS011;17103;48.316;11.558;2022-07-30T04:14:15;4.03;;;2.15;;
30287;SDS011;17103;48.316;11.558;2022-07-30T04:19:32;4.00;;;1.90;;
30287;SDS011;17103;48.316;11.558;2022-07-30T04:22:00;2.58;;;1.80;;
30287;SDS011;17103;48.316;11.558;2022-07-30T04:24:28;3.67;;;2.13;;
30287;SDS011;17103;48.316;11.558;2022-07-30T04:26:57;2.60;;;2.03;;
30287;SDS011;17103;48.316;11.558;2022-07-30T04:29:25;3.53;;;1.88;;
30287;SDS011;17103;48.316;11.558;2022-07-30T04:31:52;3.13;;;1.85;;
30287;SDS011;17103;48.316;11.558;2022-07-30T04:34:18;1.67;;;1.55;;
30287;SDS011;17103;48.316;11.558;2022-07-30T04:36:44;3.50;;;2.13;;
30287;SDS011;17103;48.316;11.558;2022-07-30T04:39:10;2.47;;;1.92;;
30287;SDS011;17103;48.316;11.558;2022-07-30T04:41:36;4.00;;;1.90;;
30287;SDS011;17103;48.316;11.558;2022-07-30T04:44:02;6.68;;;2.30;;
30287;SDS011;17103;48.316;11.558;2022-07-30T04:46:28;4.05;;;2.58;;
30287;SDS011;17103;48.316;11.558;2022-07-30T04:48:54;2.42;;;2.00;;
30287;SDS011;17103;48.316;11.558;2022-07-30T04:51:24;4.22;;;2.25;;
30287;SDS011;17103;48.316;11.558;2022-07-30T04:53:54;4.28;;;2.03;;
30287;SDS011;17103;48.316;11.558;2022-07-30T04:56:21;2.13;;;1.80;;
30287;SDS011;17103;48.316;11.558;2022-07-30T04:58:55;3.40;;;1.90;;
30287;SDS011;17103;48.316;11.558;2022-07-30T05:01:33;4.00;;;2.35;;
30287;SDS011;17103;48.316;11.558;2022-07-30T05:04:00;3.95;;;2.45;;
30287;SDS011;17103;48.316;11.558;2022-07-30T05:06:29;3.00;;;2.30;;
30287;SDS011;17103;48.316;11.558;2022-07-30T05:08:56;2.70;;;1.77;;
30287;SDS011;17103;48.316;11.558;2022-07-30T05:11:25;2.83;;;2.17;;
30287;SDS011;17103;48.316;11.558;2022-07-30T05:13:51;2.30;;;2.05;;
30287;SDS011;17103;48.316;11.558;2022-07-30T05:16:18;3.42;;;2.40;;
30287;SDS011;17103;48.316;11.558;2022-07-30T05:18:43;4.13;;;2.30;;
30287;SDS011;17103;48.316;11.558;2022-07-30T05:21:10;2.30;;;1.80;;
30287;SDS011;17103;48.316;11.558;2022-07-30T05:23:36;2.47;;;1.88;;
30287;SDS011;17103;48.316;11.558;2022-07-30T05:26:01;2.97;;;2.20;;
30287;SDS011;17103;48.316;11.558;2022-07-30T05:28:27;2.72;;;1.73;;
30287;SDS011;17103;48.316;11.558;2022-07-30T05:30:53;2.53;;;1.98;;
30287;SDS011;17103;48.316;11.558;2022-07-30T05:33:20;3.20;;;2.22;;
30287;SDS011;17103;48.316;11.558;2022-07-30T05:35:49;4.45;;;2.05;;
30287;SDS011;17103;48.316;11.558;2022-07-30T05:38:15;3.53;;;1.95;;
30287;SDS011;17103;48.316;11.558;2022-07-30T05:40:41;6.47;;;2.83;;
30287;SDS011;17103;48.316;11.558;2022-07-30T05:43:10;3.20;;;1.98;;
30287;SDS011;17103;48.316;11.558;2022-07-30T05:45:36;3.00;;;2.50;;
30287;SDS011;17103;48.316;11.558;2022-07-30T05:48:01;3.50;;;2.25;;
30287;SDS011;17103;48.316;11.558;2022-07-30T05:50:27;3.17;;;2.45;;
30287;SDS011;17103;48.316;11.558;2022-07-30T05:52:53;3.17;;;2.30;;
30287;SDS011;17103;48.316;11.558;2022-07-30T05:55:20;3.65;;;2.30;;
30287;SDS011;17103;48.316;11.558;2022-07-30T05:57:48;4.30;;;2.28;;
30287;SDS011;17103;48.316;11.558;2022-07-30T06:00:14;2.75;;;2.15;;
30287;SDS011;17103;48.316;11.558;2022-07-30T06:02:41;3.50;;;2.25;;
30287;SDS011;17103;48.316;11.558;2022-07-30T06:05:06;3.55;;;2.33;;
30287;SDS011;17103;48.316;11.558;2022-07-30T06:07:32;3.42;;;2.50;;
30287;SDS011;17103;48.316;11.558;2022-07-30T06:09:58;2.97;;;2.45;;
30287;SDS011;17103;48.316;11.558;2022-07-30T06:12:28;2.53;;;2.25;;
30287;SDS011;17103;48.316;11.558;2022-07-30T06:14:55;6.45;;;2.60;;
30287;SDS011;17103;48.316;11.558;2022-07-30T06:17:21;5.25;;;2.65;;
30287;SDS011;17103;48.316;11.558;2022-07-30T06:19:47;3.78;;;2.75;;
30287;SDS011;17103;48.316;11.558;2022-07-30T06:22:14;3.53;;;2.60;;
30287;SDS011;17103;48.316;11.558;2022-07-30T06:24:41;5.78;;;2.55;;
30287;SDS011;17103;48.316;11.558;2022-07-30T06:27:06;3.42;;;2.60;;
30287;SDS011;17103;48.316;11.558;2022-07-30T06:29:35;4.07;;;3.10;;
30287;SDS011;17103;48.316;11.558;2022-07-30T06:32:02;5.20;;;2.83;;
30287;SDS011;17103;48.316;11.558;2022-07-30T06:34:28;3.40;;;3.10;;
30287;SDS011;17103;48.316;11.558;2022-07-30T06:36:53;3.08;;;2.85;;
30287;SDS011;17103;48.316;11.558;2022-07-30T06:39:19;4.75;;;3.42;;
30287;SDS011;17103;48.316;11.558;2022-07-30T06:41:45;4.40;;;3.40;;
30287;SDS011;17103;48.316;11.558;2022-07-30T06:44:12;4.00;;;3.13;;
30287;SDS011;17103;48.316;11.558;2022-07-30T06:46:40;3.45;;;3.13;;
30287;SDS011;17103;48.316;11.558;2022-07-30T06:49:06;5.40;;;3.78;;
30287;SDS011;17103;48.316;11.558;2022-07-30T06:51:31;4.88;;;3.78;;
30287;SDS011;17103;48.316;11.558;2022-07-30T06:53:57;4.00;;;3.38;;
30287;SDS011;17103;48.316;11.558;2022-07-30T06:56:22;5.05;;;3.53;;
30287;SDS011;17103;48.316;11.558;2022-07-30T06:58:48;4.57;;;4.18;;
30287;SDS011;17103;48.316;11.558;2022-07-30T07:01:14;4.80;;;4.32;;
30287;SDS011;17103;48.316;11.558;2022-07-30T07:03:39;4.28;;;3.33;;
30287;SDS011;17103;48.316;11.558;2022-07-30T07:06:05;4.28;;;3.50;;
30287;SDS011;17103;48.316;11.558;2022-07-30T07:08:32;6.25;;;4.22;;
30287;SDS011;17103;48.316;11.558;2022-07-30T07:11:00;7.00;;;4.45;;
30287;SDS011;17103;48.316;11.558;2022-07-30T07:13:25;4.85;;;3.80;;
30287;SDS011;17103;48.316;11.558;2022-07-30T07:15:51;6.15;;;4.20;;
30287;SDS011;17103;48.316;11.558;2022-07-30T07:18:18;5.35;;;4.03;;
30287;SDS011;17103;48.316;11.558;2022-07-30T07:20:43;6.03;;;4.30;;
30287;SDS011;17103;48.316;11.558;2022-07-30T07:23:10;5.50;;;4.30;;
30287;SDS011;17103;48.316;11.558;2022-07-30T07:25:36;5.00;;;3.95;;
30287;SDS011;17103;48.316;11.558;2022-07-30T07:28:02;5.80;;;4.72;;
30287;SDS011;17103;48.316;11.558;2022-07-30T07:30:28;6.18;;;4.97;;
30287;SDS011;17103;48.316;11.558;2022-07-30T07:32:54;5.25;;;4.47;;
30287;SDS011;17103;48.316;11.558;2022-07-30T07:35:20;5.97;;;4.38;;
30287;SDS011;17103;48.316;11.558;2022-07-30T07:37:45;6.05;;;5.10;;
30287;SDS011;17103;48.316;11.558;2022-07-30T07:40:11;13.35;;;5.78;;
30287;SDS011;17103;48.316;11.558;2022-07-30T07:42:37;5.63;;;5.13;;
30287;SDS011;17103;48.316;11.558;2022-07-30T07:45:02;5.97;;;4.80;;
30287;SDS011;17103;48.316;11.558;2022-07-30T07:47:30;6.07;;;4.80;;
30287;SDS011;17103;48.316;11.558;2022-07-30T07:50:06;5.40;;;4.90;;
30287;SDS011;17103;48.316;11.558;2022-07-30T07:52:32;7.78;;;5.95;;
30287;SDS011;17103;48.316;11.558;2022-07-30T07:54:57;6.55;;;5.50;;
30287;SDS011;17103;48.316;11.558;2022-07-30T07:57:23;6.57;;;4.82;;
30287;SDS011;17103;48.316;11.558;2022-07-30T07:59:48;6.47;;;5.22;;
30287;SDS011;17103;48.316;11.558;2022-07-30T08:02:18;7.22;;;6.53;;
30287;SDS011;17103;48.316;11.558;2022-07-30T08:04:44;8.00;;;6.32;;
30287;SDS011;17103;48.316;11.558;2022-07-30T08:07:11;10.30;;;5.00;;
30287;SDS011;17103;48.316;11.558;2022-07-30T08:09:37;8.38;;;6.07;;
30287;SDS011;17103;48.316;11.558;2022-07-30T08:12:03;6.38;;;4.05;;
30287;SDS011;17103;48.316;11.558;2022-07-30T08:14:29;8.50;;;6.40;;
30287;SDS011;17103;48.316;11.558;2022-07-30T08:16:54;7.22;;;6.32;;
30287;SDS011;17103;48.316;11.558;2022-07-30T08:19:20;8.88;;;6.72;;
30287;SDS011;17103;48.316;11.558;2022-07-30T08:21:45;9.52;;;7.50;;
30287;SDS011;17103;48.316;11.558;2022-07-30T08:24:11;8.73;;;7.30;;
30287;SDS011;17103;48.316;11.558;2022-07-30T08:26:37;8.20;;;5.75;;
30287;SDS011;17103;48.316;11.558;2022-07-30T08:29:04;7.72;;;5.18;;
30287;SDS011;17103;48.316;11.558;2022-07-30T08:31:29;6.75;;;5.65;;
30287;SDS011;17103;48.316;11.558;2022-07-30T08:33:55;8.80;;;4.82;;
30287;SDS011;17103;48.316;11.558;2022-07-30T08:36:22;7.50;;;5.43;;
30287;SDS011;17103;48.316;11.558;2022-07-30T08:41:17;8.75;;;5.82;;
30287;SDS011;17103;48.316;11.558;2022-07-30T08:43:46;10.85;;;5.75;;
30287;SDS011;17103;48.316;11.558;2022-07-30T08:46:14;6.97;;;4.68;;
30287;SDS011;17103;48.316;11.558;2022-07-30T08:48:42;7.43;;;5.00;;
30287;SDS011;17103;48.316;11.558;2022-07-30T08:51:08;5.80;;;4.38;;
30287;SDS011;17103;48.316;11.558;2022-07-30T08:53:35;6.15;;;4.90;;
30287;SDS011;17103;48.316;11.558;2022-07-30T08:56:01;7.57;;;4.90;;
30287;SDS011;17103;48.316;11.558;2022-07-30T08:58:28;6.57;;;5.68;;
30287;SDS011;17103;48.316;11.558;2022-07-30T09:00:55;5.30;;;4.30;;
30287;SDS011;17103;48.316;11.558;2022-07-30T09:03:21;7.00;;;5.50;;
30287;SDS011;17103;48.316;11.558;2022-07-30T09:05:47;7.47;;;5.10;;
30287;SDS011;17103;48.316;11.558;2022-07-30T09:08:13;5.90;;;5.20;;
30287;SDS011;17103;48.316;11.558;2022-07-30T09:10:39;6.40;;;4.70;;
30287;SDS011;17103;48.316;11.558;2022-07-30T09:13:21;7.97;;;4.93;;
30287;SDS011;17103;48.316;11.558;2022-07-30T09:15:58;5.22;;;4.28;;
30287;SDS011;17103;48.316;11.558;2022-07-30T09:18:31;5.25;;;4.75;;
30287;SDS011;17103;48.316;11.558;2022-07-30T09:20:59;6.80;;;4.90;;
30287;SDS011;17103;48.316;11.558;2022-07-30T09:23:26;10.85;;;4.63;;
30287;SDS011;17103;48.316;11.558;2022-07-30T09:25:52;5.38;;;4.35;;
30287;SDS011;17103;48.316;11.558;2022-07-30T09:28:26;3.88;;;3.50;;
30287;SDS011;17103;48.316;11.558;2022-07-30T09:30:54;5.90;;;3.95;;
30287;SDS011;17103;48.316;11.558;2022-07-30T09:33:40;7.30;;;3.90;;
30287;SDS011;17103;48.316;11.558;2022-07-30T09:36:08;5.32;;;3.65;;
30287;SDS011;17103;48.316;11.558;2022-07-30T09:41:07;4.93;;;2.90;;
30287;SDS011;17103;48.316;11.558;2022-07-30T09:43:41;3.30;;;3.00;;
30287;SDS011;17103;48.316;11.558;2022-07-30T09:46:14;3.10;;;2.80;;
30287;SDS011;17103;48.316;11.558;2022-07-30T09:48:41;4.10;;;3.17;;
30287;SDS011;17103;48.316;11.558;2022-07-30T09:51:07;5.85;;;3.38;;
30287;SDS011;17103;48.316;11.558;2022-07-30T09:53:33;7.75;;;3.15;;
30287;SDS011;17103;48.316;11.558;2022-07-30T09:55:59;4.45;;;3.40;;
30287;SDS011;17103;48.316;11.558;2022-07-30T09:58:38;4.95;;;3.78;;
30287;SDS011;17103;48.316;11.558;2022-07-30T10:01:05;5.00;;;2.95;;
30287;SDS011;17103;48.316;11.558;2022-07-30T10:03:31;4.70;;;3.15;;
30287;SDS011;17103;48.316;11.558;2022-07-30T10:05:59;4.18;;;2.90;;
30287;SDS011;17103;48.316;11.558;2022-07-30T10:08:42;3.20;;;2.90;;
30287;SDS011;17103;48.316;11.558;2022-07-30T10:11:11;6.85;;;2.90;;
30287;SDS011;17103;48.316;11.558;2022-07-30T10:13:38;3.75;;;3.40;;
30287;SDS011;17103;48.316;11.558;2022-07-30T10:16:05;4.85;;;2.47;;
30287;SDS011;17103;48.316;11.558;2022-07-30T10:18:32;2.85;;;2.60;;
30287;SDS011;17103;48.316;11.558;2022-07-30T10:20:58;6.18;;;2.30;;
30287;SDS011;17103;48.316;11.558;2022-07-30T10:23:26;3.70;;;2.58;;
30287;SDS011;17103;48.316;11.558;2022-07-30T10:25:57;4.18;;;2.05;;
30287;SDS011;17103;48.316;11.558;2022-07-30T10:28:25;3.83;;;1.77;;
30287;SDS011;17103;48.316;11.558;2022-07-30T10:30:52;3.08;;;2.35;;
30287;SDS011;17103;48.316;11.558;2022-07-30T10:33:20;6.15;;;2.42;;
30287;SDS011;17103;48.316;11.558;2022-07-30T10:35:47;2.83;;;2.15;;
30287;SDS011;17103;48.316;11.558;2022-07-30T10:38:14;3.03;;;2.00;;
30287;SDS011;17103;48.316;11.558;2022-07-30T10:41:03;4.13;;;2.10;;
30287;SDS011;17103;48.316;11.558;2022-07-30T10:49:18;3.28;;;2.20;;
30287;SDS011;17103;48.316;11.558;2022-07-30T10:51:45;5.50;;;2.67;;
30287;SDS011;17103;48.316;11.558;2022-07-30T11:02:21;2.53;;;1.65;;
30287;SDS011;17103;48.316;11.558;2022-07-30T11:04:48;2.35;;;1.40;;
30287;SDS011;17103;48.316;11.558;2022-07-30T11:09:47;8.80;;;1.92;;
30287;SDS011;17103;48.316;11.558;2022-07-30T11:12:14;5.85;;;1.70;;
30287;SDS011;17103;48.316;11.558;2022-07-30T11:17:17;4.72;;;1.50;;
30287;SDS011;17103;48.316;11.558;2022-07-30T11:22:33;3.50;;;1.52;;
30287;SDS011;17103;48.316;11.558;2022-07-30T11:25:05;3.53;;;1.38;;
30287;SDS011;17103;48.316;11.558;2022-07-30T11:27:53;2.75;;;1.90;;
30287;SDS011;17103;48.316;11.558;2022-07-30T11:32:47;2.38;;;1.20;;
30287;SDS011;17103;48.316;11.558;2022-07-30T11:35:23;2.15;;;1.60;;
30287;SDS011;17103;48.316;11.558;2022-07-30T11:40:32;1.88;;;1.50;;
30287;SDS011;17103;48.316;11.558;2022-07-30T11:46:08;2.95;;;1.75;;
30287;SDS011;17103;48.316;11.558;2022-07-30T11:48:54;4.13;;;1.65;;
30287;SDS011;17103;48.316;11.558;2022-07-30T11:51:22;5.38;;;1.77;;
30287;SDS011;17103;48.316;11.558;2022-07-30T11:54:04;2.85;;;1.67;;
30287;SDS011;17103;48.316;11.558;2022-07-30T11:56:32;6.00;;;1.77;;
30287;SDS011;17103;48.316;11.558;2022-07-30T11:59:01;2.35;;;1.45;;
30287;SDS011;17103;48.316;11.558;2022-07-30T12:01:28;2.50;;;2.00;;
30287;SDS011;17103;48.316;11.558;2022-07-30T12:03:55;4.00;;;1.50;;
30287;SDS011;17103;48.316;11.558;2022-07-30T12:06:21;1.73;;;1.48;;
30287;SDS011;17103;48.316;11.558;2022-07-30T12:08:48;1.58;;;1.25;;
30287;SDS011;17103;48.316;11.558;2022-07-30T12:11:16;2.90;;;1.67;;
30287;SDS011;17103;48.316;11.558;2022-07-30T12:13:42;3.72;;;1.05;;
30287;SDS011;17103;48.316;11.558;2022-07-30T12:16:11;1.83;;;1.25;;
30287;SDS011;17103;48.316;11.558;2022-07-30T12:18:41;2.55;;;1.00;;
30287;SDS011;17103;48.316;11.558;2022-07-30T12:21:08;2.78;;;1.30;;
30287;SDS011;17103;48.316;11.558;2022-07-30T12:23:37;4.30;;;1.30;;
30287;SDS011;17103;48.316;11.558;2022-07-30T12:26:06;1.25;;;0.82;;
30287;SDS011;17103;48.316;11.558;2022-07-30T12:28:33;1.60;;;0.80;;
30287;SDS011;17103;48.316;11.558;2022-07-30T12:30:59;1.40;;;1.23;;
30287;SDS011;17103;48.316;11.558;2022-07-30T12:33:28;1.45;;;1.20;;
30287;SDS011;17103;48.316;11.558;2022-07-30T12:35:55;3.05;;;1.42;;
30287;SDS011;17103;48.316;11.558;2022-07-30T12:38:25;3.42;;;1.20;;
30287;SDS011;17103;48.316;11.558;2022-07-30T12:41:01;2.03;;;1.40;;
30287;SDS011;17103;48.316;11.558;2022-07-30T12:43:45;2.67;;;1.00;;
30287;SDS011;17103;48.316;11.558;2022-07-30T12:51:16;1.48;;;1.38;;
30287;SDS011;17103;48.316;11.558;2022-07-30T12:53:44;2.15;;;1.40;;
30287;SDS011;17103;48.316;11.558;2022-07-30T12:56:11;2.03;;;0.90;;
30287;SDS011;17103;48.316;11.558;2022-07-30T12:58:42;3.10;;;0.95;;
30287;SDS011;17103;48.316;11.558;2022-07-30T13:01:09;1.67;;;1.10;;
30287;SDS011;17103;48.316;11.558;2022-07-30T13:03:35;2.35;;;0.93;;
30287;SDS011;17103;48.316;11.558;2022-07-30T13:11:17;1.35;;;1.15;;
30287;SDS011;17103;48.316;11.558;2022-07-30T13:13:45;3.70;;;1.17;;
30287;SDS011;17103;48.316;11.558;2022-07-30T13:16:11;3.28;;;1.10;;
30287;SDS011;17103;48.316;11.558;2022-07-30T13:18:36;2.97;;;1.35;;
30287;SDS011;17103;48.316;11.558;2022-07-30T13:21:04;3.28;;;1.17;;
30287;SDS011;17103;48.316;11.558;2022-07-30T13:23:33;1.80;;;1.05;;
30287;SDS011;17103;48.316;11.558;2022-07-30T13:25:59;1.83;;;0.90;;
30287;SDS011;17103;48.316;11.558;2022-07-30T13:28:25;5.53;;;1.15;;
30287;SDS011;17103;48.316;11.558;2022-07-30T13:30:51;2.15;;;1.30;;
30287;SDS011;17103;48.316;11.558;2022-07-30T13:33:17;2.78;;;1.15;;
30287;SDS011;17103;48.316;11.558;2022-07-30T13:35:43;1.83;;;1.10;;
30287;SDS011;17103;48.316;11.558;2022-07-30T13:38:08;1.77;;;0.95;;
30287;SDS011;17103;48.316;11.558;2022-07-30T13:40:35;2.05;;;0.88;;
30287;SDS011;17103;48.316;11.558;2022-07-30T13:43:01;1.40;;;1.30;;
30287;SDS011;17103;48.316;11.558;2022-07-30T13:45:27;10.45;;;1.38;;
30287;SDS011;17103;48.316;11.558;2022-07-30T13:47:54;1.20;;;1.10;;
30287;SDS011;17103;48.316;11.558;2022-07-30T13:50:20;1.58;;;1.00;;
30287;SDS011;17103;48.316;11.558;2022-07-30T13:52:46;2.58;;;1.00;;
30287;SDS011;17103;48.316;11.558;2022-07-30T13:55:12;1.63;;;1.10;;
30287;SDS011;17103;48.316;11.558;2022-07-30T13:57:38;2.92;;;1.10;;
30287;SDS011;17103;48.316;11.558;2022-07-30T14:00:04;1.27;;;1.15;;
30287;SDS011;17103;48.316;11.558;2022-07-30T14:02:31;3.65;;;1.25;;
30287;SDS011;17103;48.316;11.558;2022-07-30T14:04:57;5.03;;;1.20;;
30287;SDS011;17103;48.316;11.558;2022-07-30T14:07:23;2.15;;;1.20;;
30287;SDS011;17103;48.316;11.558;2022-07-30T14:09:49;1.67;;;1.08;;
30287;SDS011;17103;48.316;11.558;2022-07-30T14:12:15;1.00;;;0.95;;
30287;SDS011;17103;48.316;11.558;2022-07-30T14:14:41;1.95;;;1.15;;
30287;SDS011;17103;48.316;11.558;2022-07-30T14:17:06;5.47;;;1.27;;
30287;SDS011;17103;48.316;11.558;2022-07-30T14:19:32;2.45;;;1.13;;
30287;SDS011;17103;48.316;11.558;2022-07-30T14:21:58;1.73;;;0.82;;
30287;SDS011;17103;48.316;11.558;2022-07-30T14:24:24;1.73;;;1.40;;
30287;SDS011;17103;48.316;11.558;2022-07-30T14:26:51;2.17;;;1.38;;
30287;SDS011;17103;48.316;11.558;2022-07-30T14:29:16;1.70;;;1.00;;
30287;SDS011;17103;48.316;11.558;2022-07-30T14:31:42;2.70;;;1.10;;
30287;SDS011;17103;48.316;11.558;2022-07-30T14:34:10;1.20;;;0.90;;
30287;SDS011;17103;48.316;11.558;2022-07-30T14:36:37;4.97;;;1.00;;
30287;SDS011;17103;48.316;11.558;2022-07-30T14:39:02;1.58;;;1.20;;
30287;SDS011;17103;48.316;11.558;2022-07-30T14:41:29;2.08;;;0.90;;
30287;SDS011;17103;48.316;11.558;2022-07-30T14:43:56;3.03;;;1.10;;
30287;SDS011;17103;48.316;11.558;2022-07-30T14:46:22;4.00;;;1.30;;
30287;SDS011;17103;48.316;11.558;2022-07-30T14:48:48;1.85;;;0.98;;
30287;SDS011;17103;48.316;11.558;2022-07-30T14:51:16;1.00;;;0.88;;
30287;SDS011;17103;48.316;11.558;2022-07-30T14:53:42;2.08;;;1.10;;
30287;SDS011;17103;48.316;11.558;2022-07-30T14:56:08;1.60;;;0.80;;
30287;SDS011;17103;48.316;11.558;2022-07-30T14:58:34;2.35;;;1.00;;
30287;SDS011;17103;48.316;11.558;2022-07-30T15:01:00;1.38;;;0.90;;
30287;SDS011;17103;48.316;11.558;2022-07-30T15:03:28;1.30;;;0.93;;
30287;SDS011;17103;48.316;11.558;2022-07-30T15:05:55;0.90;;;0.80;;
30287;SDS011;17103;48.316;11.558;2022-07-30T15:08:20;1.13;;;0.85;;
30287;SDS011;17103;48.316;11.558;2022-07-30T15:10:47;3.22;;;1.25;;
30287;SDS011;17103;48.316;11.558;2022-07-30T15:13:13;1.48;;;0.85;;
30287;SDS011;17103;48.316;11.558;2022-07-30T15:15:39;1.02;;;0.60;;
30287;SDS011;17103;48.316;11.558;2022-07-30T15:18:05;1.88;;;0.88;;
30287;SDS011;17103;48.316;11.558;2022-07-30T15:20:31;2.25;;;0.95;;
30287;SDS011;17103;48.316;11.558;2022-07-30T15:22:57;2.33;;;1.27;;
30287;SDS011;17103;48.316;11.558;2022-07-30T15:25:23;1.67;;;0.80;;
30287;SDS011;17103;48.316;11.558;2022-07-30T15:27:50;4.10;;;1.02;;
30287;SDS011;17103;48.316;11.558;2022-07-30T15:30:16;2.00;;;0.70;;
30287;SDS011;17103;48.316;11.558;2022-07-30T15:32:43;1.40;;;1.00;;